Time;durP1;ratioP1;P1;durP2;ratioP2;P2;SDS_P1;SDS_P2;PMS_P1;PMS_P2;Temp;Humidity;BMP_temperature;BMP_pressure;BME280_temperature;BME280_humidity;BME280_pressure;Samples;Min_cycle;Max_cycle;Signal;HPM_P1;HPM_P2
2023/06/07 00:10:10;;;;;;;11.23;9.63;;;14.30;99.90;;;;;;5873931;23;20217;-84
2023/06/07 00:40:16;;;;;;;11.43;9.20;;;14.10;99.90;;;;;;5803139;23;20663;-81
2023/06/07 01:05:39;;;;;;;11.53;9.30;;;13.80;99.90;;;;;;5694354;24;20544;-82
2023/06/07 01:36:30;;;;;;;10.23;8.50;;;13.70;99.90;;;;;;5502688;25;20194;-83
2023/06/07 02:01:46;;;;;;;10.60;9.50;;;13.60;99.80;;;;;;5687071;24;20452;-81
2023/06/07 03:37:31;;;;;;;11.77;8.77;;;15.80;85.40;;;;;;5547928;24;20670;-85
2023/06/07 04:07:59;;;;;;;10.47;8.47;;;16.40;83.00;;;;;;5766077;23;20611;-84
2023/06/07 04:23:42;;;;;;;14.37;8.57;;;16.70;82.30;;;;;;5658053;24;20195;-83
2023/06/07 04:59:04;;;;;;;9.40;7.33;;;18.80;77.90;;;;;;5574841;24;20562;-82
2023/06/07 06:30:06;;;;;;;10.38;6.00;;;21.50;64.40;;;;;;5742275;24;20211;-87
2023/06/07 07:05:51;;;;;;;11.35;6.05;;;23.10;60.60;;;;;;5753041;24;20183;-80
2023/06/07 07:36:25;;;;;;;6.88;5.68;;;24.80;58.40;;;;;;5824103;23;20803;-83
2023/06/07 08:01:34;;;;;;;10.23;5.95;;;25.30;56.90;;;;;;5762434;24;20352;-82
2023/06/07 09:02:25;;;;;;;3.95;3.65;;;26.90;46.90;;;;;;4998808;27;20251;-87
2023/06/07 09:38:07;;;;;;;6.43;3.97;;;26.60;46.20;;;;;;4952463;27;20193;-79
2023/06/07 10:03:09;;;;;;;6.05;4.10;;;26.00;47.20;;;;;;4787347;28;20719;-81
2023/06/07 11:03:48;;;;;;;4.07;3.65;;;27.20;46.90;;;;;;4745628;28;21265;-83
2023/06/07 11:24:34;;;;;;;6.93;3.95;;;26.90;47.80;;;;;;4784100;29;20259;-86
2023/06/07 11:49:58;;;;;;;5.30;4.50;;;28.00;47.70;;;;;;4633305;30;20878;-82
2023/06/07 12:19:49;;;;;;;5.93;4.30;;;26.60;48.00;;;;;;4641927;29;20931;-82
2023/06/07 12:45:45;;;;;;;5.72;4.30;;;26.80;49.60;;;;;;4720906;29;20417;-82
2023/06/07 13:10:32;;;;;;;8.77;5.30;;;22.90;80.80;;;;;;4737287;29;20650;-80
2023/06/07 13:51:34;;;;;;;5.35;4.10;;;25.50;83.30;;;;;;4630927;29;20223;-82
2023/06/07 14:11:37;;;;;;;7.40;4.10;;;33.90;54.80;;;;;;4747682;29;20634;-83
2023/06/07 14:37:25;;;;;;;5.95;4.30;;;33.40;49.40;;;;;;4865119;28;20882;-83
2023/06/07 15:02:16;;;;;;;4.40;3.88;;;30.10;54.10;;;;;;4766797;29;20440;-84
2023/06/07 15:28:13;;;;;;;6.90;4.07;;;26.10;84.80;;;;;;4764876;29;20259;-85
2023/06/07 15:53:25;;;;;;;4.45;4.00;;;28.60;57.80;;;;;;4764018;29;20254;-86
2023/06/07 16:23:39;;;;;;;6.18;3.70;;;25.00;60.50;;;;;;4747285;29;20220;-84
2023/06/07 16:54:21;;;;;;;5.47;3.70;;;24.40;65.00;;;;;;4745634;29;20308;-82
2023/06/07 17:19:45;;;;;;;4.40;4.00;;;24.10;65.60;;;;;;4872586;28;20295;-85
2023/06/07 17:55:13;;;;;;;7.32;4.25;;;23.20;68.60;;;;;;4849536;28;20617;-85
2023/06/07 18:25:25;;;;;;;8.40;4.60;;;21.90;77.80;;;;;;4827891;28;20642;-83
2023/06/07 18:45:57;;;;;;;5.00;4.20;;;20.80;83.20;;;;;;4815046;28;20197;-83
2023/06/07 19:10:52;;;;;;;6.60;5.47;;;19.10;90.00;;;;;;4715218;29;20565;-81
2023/06/07 19:41:47;;;;;;;5.90;5.10;;;17.70;96.70;;;;;;4855593;28;20267;-80
2023/06/07 20:11:59;;;;;;;8.27;7.47;;;17.00;99.90;;;;;;4783857;29;20226;-80
2023/06/07 20:41:56;;;;;;;11.60;9.00;;;16.50;99.90;;;;;;4763763;29;20739;-80
2023/06/07 21:07:23;;;;;;;12.37;10.17;;;15.80;99.90;;;;;;4709501;29;20531;-80
2023/06/07 21:53:14;;;;;;;15.37;12.90;;;15.10;99.90;;;;;;4563885;29;20224;-80
2023/06/07 22:18:59;;;;;;;16.57;14.77;;;14.80;99.90;;;;;;4767388;29;20327;-81
2023/06/07 22:44:08;;;;;;;17.53;15.70;;;14.50;99.90;;;;;;4732399;29;20303;-82
2023/06/07 23:45:12;;;;;;;19.30;17.00;;;13.80;99.90;;;;;;4894190;28;20346;-84
